sensor_id;sensor_type;location;lat;lon;timestamp;P1;durP1;ratioP1;P2;durP2;ratioP2
72891;SDS011;61032;50.782;6.818;2022-07-23T00:00:17;19.67;;;10.43;;
72891;SDS011;61032;50.782;6.818;2022-07-23T00:01:19;18.13;;;9.98;;
72891;SDS011;61032;50.782;6.818;2022-07-23T00:02:20;16.33;;;10.35;;
72891;SDS011;61032;50.782;6.818;2022-07-23T00:03:20;17.30;;;9.98;;
72891;SDS011;61032;50.782;6.818;2022-07-23T00:04:21;16.83;;;10.38;;
72891;SDS011;61032;50.782;6.818;2022-07-23T00:05:21;17.98;;;10.43;;
72891;SDS011;61032;50.782;6.818;2022-07-23T00:06:22;15.50;;;10.13;;
72891;SDS011;61032;50.782;6.818;2022-07-23T00:07:23;16.83;;;9.98;;
72891;SDS011;61032;50.782;6.818;2022-07-23T00:08:23;16.88;;;11.15;;
72891;SDS011;61032;50.782;6.818;2022-07-23T00:09:24;17.73;;;10.35;;
72891;SDS011;61032;50.782;6.818;2022-07-23T00:10:24;16.83;;;11.32;;
72891;SDS011;61032;50.782;6.818;2022-07-23T00:11:24;16.15;;;11.05;;
72891;SDS011;61032;50.782;6.818;2022-07-23T00:12:25;16.35;;;10.48;;
72891;SDS011;61032;50.782;6.818;2022-07-23T00:13:25;15.60;;;10.43;;
72891;SDS011;61032;50.782;6.818;2022-07-23T00:14:26;16.33;;;10.93;;
72891;SDS011;61032;50.782;6.818;2022-07-23T00:15:27;17.65;;;10.52;;
72891;SDS011;61032;50.782;6.818;2022-07-23T00:16:27;17.55;;;11.15;;
72891;SDS011;61032;50.782;6.818;2022-07-23T00:17:27;18.20;;;9.60;;
72891;SDS011;61032;50.782;6.818;2022-07-23T00:18:28;21.08;;;11.52;;
72891;SDS011;61032;50.782;6.818;2022-07-23T00:19:28;16.63;;;10.35;;
72891;SDS011;61032;50.782;6.818;2022-07-23T00:20:29;17.20;;;10.45;;
72891;SDS011;61032;50.782;6.818;2022-07-23T00:21:29;15.20;;;10.15;;
72891;SDS011;61032;50.782;6.818;2022-07-23T00:22:30;16.15;;;10.55;;
72891;SDS011;61032;50.782;6.818;2022-07-23T00:23:30;18.27;;;11.02;;
72891;SDS011;61032;50.782;6.818;2022-07-23T00:24:31;17.20;;;11.07;;
72891;SDS011;61032;50.782;6.818;2022-07-23T00:25:31;19.38;;;11.23;;
72891;SDS011;61032;50.782;6.818;2022-07-23T00:26:32;17.38;;;11.27;;
72891;SDS011;61032;50.782;6.818;2022-07-23T00:27:32;18.02;;;12.43;;
72891;SDS011;61032;50.782;6.818;2022-07-23T00:28:32;17.00;;;11.40;;
72891;SDS011;61032;50.782;6.818;2022-07-23T00:29:33;21.05;;;11.88;;
72891;SDS011;61032;50.782;6.818;2022-07-23T00:30:33;17.38;;;10.77;;
72891;SDS011;61032;50.782;6.818;2022-07-23T00:31:34;17.52;;;10.60;;
72891;SDS011;61032;50.782;6.818;2022-07-23T00:32:47;16.83;;;10.50;;
72891;SDS011;61032;50.782;6.818;2022-07-23T00:33:52;18.25;;;10.73;;
72891;SDS011;61032;50.782;6.818;2022-07-23T00:34:56;19.98;;;10.82;;
72891;SDS011;61032;50.782;6.818;2022-07-23T00:35:56;15.63;;;9.70;;
72891;SDS011;61032;50.782;6.818;2022-07-23T00:36:57;16.40;;;10.32;;
72891;SDS011;61032;50.782;6.818;2022-07-23T00:37:58;16.67;;;11.52;;
72891;SDS011;61032;50.782;6.818;2022-07-23T00:38:58;16.48;;;10.70;;
72891;SDS011;61032;50.782;6.818;2022-07-23T00:39:59;19.05;;;11.55;;
72891;SDS011;61032;50.782;6.818;2022-07-23T00:40:59;16.75;;;10.27;;
72891;SDS011;61032;50.782;6.818;2022-07-23T00:41:59;16.05;;;9.88;;
72891;SDS011;61032;50.782;6.818;2022-07-23T00:43:00;16.83;;;10.48;;
72891;SDS011;61032;50.782;6.818;2022-07-23T00:45:21;16.10;;;9.98;;
72891;SDS011;61032;50.782;6.818;2022-07-23T00:46:22;16.73;;;10.77;;
72891;SDS011;61032;50.782;6.818;2022-07-23T00:47:23;17.25;;;10.15;;
72891;SDS011;61032;50.782;6.818;2022-07-23T00:48:23;16.50;;;9.90;;
72891;SDS011;61032;50.782;6.818;2022-07-23T00:49:26;19.70;;;11.98;;
72891;SDS011;61032;50.782;6.818;2022-07-23T00:50:28;17.00;;;10.80;;
72891;SDS011;61032;50.782;6.818;2022-07-23T00:51:29;19.05;;;11.60;;
72891;SDS011;61032;50.782;6.818;2022-07-23T00:52:29;21.00;;;11.07;;
72891;SDS011;61032;50.782;6.818;2022-07-23T00:53:30;16.98;;;10.82;;
72891;SDS011;61032;50.782;6.818;2022-07-23T00:54:31;16.77;;;10.45;;
72891;SDS011;61032;50.782;6.818;2022-07-23T00:55:32;18.17;;;11.05;;
72891;SDS011;61032;50.782;6.818;2022-07-23T00:56:33;16.30;;;11.27;;
72891;SDS011;61032;50.782;6.818;2022-07-23T00:57:34;19.23;;;10.38;;
72891;SDS011;61032;50.782;6.818;2022-07-23T00:58:36;17.55;;;11.05;;
72891;SDS011;61032;50.782;6.818;2022-07-23T00:59:40;17.33;;;11.38;;
72891;SDS011;61032;50.782;6.818;2022-07-23T01:00:41;17.27;;;11.80;;
72891;SDS011;61032;50.782;6.818;2022-07-23T01:01:41;22.83;;;10.55;;
72891;SDS011;61032;50.782;6.818;2022-07-23T01:02:44;22.30;;;11.70;;
72891;SDS011;61032;50.782;6.818;2022-07-23T01:03:44;16.98;;;10.88;;
72891;SDS011;61032;50.782;6.818;2022-07-23T01:04:45;19.92;;;10.80;;
72891;SDS011;61032;50.782;6.818;2022-07-23T01:05:45;17.67;;;9.90;;
72891;SDS011;61032;50.782;6.818;2022-07-23T01:06:46;16.85;;;10.05;;
72891;SDS011;61032;50.782;6.818;2022-07-23T01:07:46;18.42;;;10.52;;
72891;SDS011;61032;50.782;6.818;2022-07-23T01:08:47;18.73;;;11.10;;
72891;SDS011;61032;50.782;6.818;2022-07-23T01:09:48;18.45;;;10.50;;
72891;SDS011;61032;50.782;6.818;2022-07-23T01:10:49;19.80;;;10.45;;
72891;SDS011;61032;50.782;6.818;2022-07-23T01:11:51;18.65;;;10.98;;
72891;SDS011;61032;50.782;6.818;2022-07-23T01:12:54;17.50;;;11.48;;
72891;SDS011;61032;50.782;6.818;2022-07-23T01:13:54;18.25;;;11.27;;
72891;SDS011;61032;50.782;6.818;2022-07-23T01:14:58;19.70;;;11.52;;
72891;SDS011;61032;50.782;6.818;2022-07-23T01:16:00;19.52;;;10.65;;
72891;SDS011;61032;50.782;6.818;2022-07-23T01:17:00;18.20;;;11.43;;
72891;SDS011;61032;50.782;6.818;2022-07-23T01:18:01;16.15;;;10.50;;
72891;SDS011;61032;50.782;6.818;2022-07-23T01:19:05;16.48;;;9.65;;
72891;SDS011;61032;50.782;6.818;2022-07-23T01:20:06;16.52;;;10.50;;
72891;SDS011;61032;50.782;6.818;2022-07-23T01:21:07;15.82;;;10.02;;
72891;SDS011;61032;50.782;6.818;2022-07-23T01:22:12;14.82;;;9.85;;
72891;SDS011;61032;50.782;6.818;2022-07-23T01:23:17;17.98;;;9.90;;
72891;SDS011;61032;50.782;6.818;2022-07-23T01:24:18;17.13;;;9.93;;
72891;SDS011;61032;50.782;6.818;2022-07-23T01:25:21;20.90;;;11.27;;
72891;SDS011;61032;50.782;6.818;2022-07-23T01:26:22;15.70;;;10.07;;
72891;SDS011;61032;50.782;6.818;2022-07-23T01:27:23;16.40;;;9.95;;
72891;SDS011;61032;50.782;6.818;2022-07-23T01:28:23;16.75;;;10.45;;
72891;SDS011;61032;50.782;6.818;2022-07-23T01:29:23;15.30;;;9.00;;
72891;SDS011;61032;50.782;6.818;2022-07-23T01:30:24;17.42;;;8.85;;
72891;SDS011;61032;50.782;6.818;2022-07-23T01:31:24;14.38;;;9.38;;
72891;SDS011;61032;50.782;6.818;2022-07-23T01:32:25;16.90;;;9.77;;
72891;SDS011;61032;50.782;6.818;2022-07-23T01:33:25;18.17;;;9.20;;
72891;SDS011;61032;50.782;6.818;2022-07-23T01:34:26;13.40;;;9.00;;
72891;SDS011;61032;50.782;6.818;2022-07-23T01:35:26;15.52;;;9.27;;
72891;SDS011;61032;50.782;6.818;2022-07-23T01:36:26;13.50;;;8.98;;
72891;SDS011;61032;50.782;6.818;2022-07-23T01:37:27;15.02;;;8.93;;
72891;SDS011;61032;50.782;6.818;2022-07-23T01:38:27;14.77;;;8.32;;
72891;SDS011;61032;50.782;6.818;2022-07-23T01:39:27;16.33;;;9.13;;
72891;SDS011;61032;50.782;6.818;2022-07-23T01:40:28;15.27;;;8.55;;
72891;SDS011;61032;50.782;6.818;2022-07-23T01:41:28;14.38;;;9.15;;
72891;SDS011;61032;50.782;6.818;2022-07-23T01:42:29;15.10;;;8.80;;
72891;SDS011;61032;50.782;6.818;2022-07-23T01:43:29;16.58;;;9.43;;
72891;SDS011;61032;50.782;6.818;2022-07-23T01:44:30;14.15;;;8.13;;
72891;SDS011;61032;50.782;6.818;2022-07-23T01:45:30;15.05;;;8.07;;
72891;SDS011;61032;50.782;6.818;2022-07-23T01:46:30;16.05;;;9.25;;
72891;SDS011;61032;50.782;6.818;2022-07-23T01:47:31;14.18;;;8.30;;
72891;SDS011;61032;50.782;6.818;2022-07-23T01:48:31;12.27;;;8.57;;
72891;SDS011;61032;50.782;6.818;2022-07-23T01:49:32;13.02;;;8.10;;
72891;SDS011;61032;50.782;6.818;2022-07-23T01:50:32;13.05;;;8.90;;
72891;SDS011;61032;50.782;6.818;2022-07-23T01:51:32;12.20;;;8.15;;
72891;SDS011;61032;50.782;6.818;2022-07-23T01:52:33;14.25;;;8.88;;
72891;SDS011;61032;50.782;6.818;2022-07-23T01:53:33;13.15;;;7.53;;
72891;SDS011;61032;50.782;6.818;2022-07-23T01:54:33;16.85;;;8.30;;
72891;SDS011;61032;50.782;6.818;2022-07-23T01:55:34;14.25;;;9.10;;
72891;SDS011;61032;50.782;6.818;2022-07-23T01:56:34;16.85;;;8.57;;
72891;SDS011;61032;50.782;6.818;2022-07-23T01:57:35;13.02;;;8.43;;
72891;SDS011;61032;50.782;6.818;2022-07-23T01:58:35;14.13;;;8.30;;
72891;SDS011;61032;50.782;6.818;2022-07-23T01:59:36;14.93;;;8.77;;
72891;SDS011;61032;50.782;6.818;2022-07-23T02:00:36;15.40;;;8.60;;
72891;SDS011;61032;50.782;6.818;2022-07-23T02:01:37;12.57;;;8.52;;
72891;SDS011;61032;50.782;6.818;2022-07-23T02:02:37;14.10;;;7.75;;
72891;SDS011;61032;50.782;6.818;2022-07-23T02:03:37;13.55;;;7.15;;
72891;SDS011;61032;50.782;6.818;2022-07-23T02:04:38;13.48;;;8.10;;
72891;SDS011;61032;50.782;6.818;2022-07-23T02:05:38;11.30;;;7.45;;
72891;SDS011;61032;50.782;6.818;2022-07-23T02:06:38;11.57;;;7.55;;
72891;SDS011;61032;50.782;6.818;2022-07-23T02:07:39;13.48;;;7.95;;
72891;SDS011;61032;50.782;6.818;2022-07-23T02:08:39;13.10;;;7.97;;
72891;SDS011;61032;50.782;6.818;2022-07-23T02:09:40;14.23;;;7.80;;
72891;SDS011;61032;50.782;6.818;2022-07-23T02:10:40;11.95;;;7.88;;
72891;SDS011;61032;50.782;6.818;2022-07-23T02:11:41;12.68;;;7.88;;
72891;SDS011;61032;50.782;6.818;2022-07-23T02:12:41;13.50;;;8.55;;
72891;SDS011;61032;50.782;6.818;2022-07-23T02:13:42;12.10;;;8.07;;
72891;SDS011;61032;50.782;6.818;2022-07-23T02:14:42;12.75;;;7.85;;
72891;SDS011;61032;50.782;6.818;2022-07-23T02:15:42;15.02;;;7.80;;
72891;SDS011;61032;50.782;6.818;2022-07-23T02:16:43;10.88;;;6.95;;
72891;SDS011;61032;50.782;6.818;2022-07-23T02:17:43;13.27;;;8.48;;
72891;SDS011;61032;50.782;6.818;2022-07-23T02:18:43;13.93;;;7.38;;
72891;SDS011;61032;50.782;6.818;2022-07-23T02:19:44;12.30;;;7.30;;
72891;SDS011;61032;50.782;6.818;2022-07-23T02:20:44;13.30;;;8.68;;
72891;SDS011;61032;50.782;6.818;2022-07-23T02:21:44;12.75;;;7.15;;
72891;SDS011;61032;50.782;6.818;2022-07-23T02:22:45;14.25;;;8.02;;
72891;SDS011;61032;50.782;6.818;2022-07-23T02:23:45;12.63;;;7.78;;
72891;SDS011;61032;50.782;6.818;2022-07-23T02:24:46;10.55;;;7.60;;
72891;SDS011;61032;50.782;6.818;2022-07-23T02:25:46;13.20;;;6.70;;
72891;SDS011;61032;50.782;6.818;2022-07-23T02:26:48;11.07;;;7.20;;
72891;SDS011;61032;50.782;6.818;2022-07-23T02:27:48;10.63;;;6.43;;
72891;SDS011;61032;50.782;6.818;2022-07-23T02:28:49;11.05;;;7.05;;
72891;SDS011;61032;50.782;6.818;2022-07-23T02:29:49;11.70;;;7.03;;
72891;SDS011;61032;50.782;6.818;2022-07-23T02:30:50;11.57;;;7.35;;
72891;SDS011;61032;50.782;6.818;2022-07-23T02:31:50;12.70;;;7.65;;
72891;SDS011;61032;50.782;6.818;2022-07-23T02:32:50;11.20;;;6.70;;
72891;SDS011;61032;50.782;6.818;2022-07-23T02:33:50;11.63;;;6.88;;
72891;SDS011;61032;50.782;6.818;2022-07-23T02:34:51;11.95;;;7.57;;
72891;SDS011;61032;50.782;6.818;2022-07-23T02:35:51;12.60;;;7.70;;
72891;SDS011;61032;50.782;6.818;2022-07-23T02:36:52;11.77;;;8.07;;
72891;SDS011;61032;50.782;6.818;2022-07-23T02:37:52;11.00;;;6.72;;
72891;SDS011;61032;50.782;6.818;2022-07-23T02:38:52;12.82;;;7.97;;
72891;SDS011;61032;50.782;6.818;2022-07-23T02:39:53;12.07;;;7.03;;
72891;SDS011;61032;50.782;6.818;2022-07-23T02:40:53;15.18;;;7.40;;
72891;SDS011;61032;50.782;6.818;2022-07-23T02:41:53;13.38;;;8.07;;
72891;SDS011;61032;50.782;6.818;2022-07-23T02:42:54;11.95;;;7.50;;
72891;SDS011;61032;50.782;6.818;2022-07-23T02:43:54;11.52;;;7.95;;
72891;SDS011;61032;50.782;6.818;2022-07-23T02:44:54;12.27;;;7.13;;
72891;SDS011;61032;50.782;6.818;2022-07-23T02:45:55;15.18;;;7.68;;
72891;SDS011;61032;50.782;6.818;2022-07-23T02:46:55;11.07;;;6.82;;
72891;SDS011;61032;50.782;6.818;2022-07-23T02:47:55;14.02;;;7.65;;
72891;SDS011;61032;50.782;6.818;2022-07-23T02:48:56;12.57;;;8.57;;
72891;SDS011;61032;50.782;6.818;2022-07-23T02:49:56;11.90;;;8.07;;
72891;SDS011;61032;50.782;6.818;2022-07-23T02:50:57;11.80;;;7.95;;
72891;SDS011;61032;50.782;6.818;2022-07-23T02:51:57;13.27;;;7.90;;
72891;SDS011;61032;50.782;6.818;2022-07-23T02:52:57;13.20;;;7.60;;
72891;SDS011;61032;50.782;6.818;2022-07-23T02:53:58;12.05;;;7.90;;
72891;SDS011;61032;50.782;6.818;2022-07-23T02:54:58;16.60;;;9.68;;
72891;SDS011;61032;50.782;6.818;2022-07-23T02:55:59;11.98;;;7.28;;
72891;SDS011;61032;50.782;6.818;2022-07-23T02:56:59;15.35;;;7.85;;
72891;SDS011;61032;50.782;6.818;2022-07-23T02:57:59;15.15;;;8.55;;
72891;SDS011;61032;50.782;6.818;2022-07-23T02:59:00;14.73;;;8.63;;
72891;SDS011;61032;50.782;6.818;2022-07-23T03:00:00;14.32;;;8.25;;
72891;SDS011;61032;50.782;6.818;2022-07-23T03:01:01;16.27;;;9.20;;
72891;SDS011;61032;50.782;6.818;2022-07-23T03:02:01;14.95;;;8.73;;
72891;SDS011;61032;50.782;6.818;2022-07-23T03:03:01;12.45;;;8.02;;
72891;SDS011;61032;50.782;6.818;2022-07-23T03:04:02;15.10;;;9.30;;
72891;SDS011;61032;50.782;6.818;2022-07-23T03:05:03;13.80;;;9.18;;
72891;SDS011;61032;50.782;6.818;2022-07-23T03:06:03;15.23;;;8.90;;
72891;SDS011;61032;50.782;6.818;2022-07-23T03:07:04;15.70;;;9.45;;
72891;SDS011;61032;50.782;6.818;2022-07-23T03:08:04;16.52;;;8.30;;
72891;SDS011;61032;50.782;6.818;2022-07-23T03:09:05;14.48;;;8.50;;
72891;SDS011;61032;50.782;6.818;2022-07-23T03:10:06;13.68;;;8.63;;
72891;SDS011;61032;50.782;6.818;2022-07-23T03:11:06;13.55;;;8.57;;
72891;SDS011;61032;50.782;6.818;2022-07-23T03:12:10;14.05;;;8.73;;
72891;SDS011;61032;50.782;6.818;2022-07-23T03:13:11;14.13;;;8.65;;
72891;SDS011;61032;50.782;6.818;2022-07-23T03:14:11;17.27;;;8.82;;
72891;SDS011;61032;50.782;6.818;2022-07-23T03:15:13;17.17;;;8.85;;
72891;SDS011;61032;50.782;6.818;2022-07-23T03:16:13;13.98;;;7.97;;
72891;SDS011;61032;50.782;6.818;2022-07-23T03:17:13;15.07;;;8.82;;
72891;SDS011;61032;50.782;6.818;2022-07-23T03:18:14;18.35;;;8.80;;
72891;SDS011;61032;50.782;6.818;2022-07-23T03:19:14;15.23;;;8.50;;
72891;SDS011;61032;50.782;6.818;2022-07-23T03:20:15;13.20;;;8.77;;
72891;SDS011;61032;50.782;6.818;2022-07-23T03:21:15;17.27;;;9.32;;
72891;SDS011;61032;50.782;6.818;2022-07-23T03:22:15;12.52;;;8.13;;
72891;SDS011;61032;50.782;6.818;2022-07-23T03:23:16;12.27;;;7.78;;
72891;SDS011;61032;50.782;6.818;2022-07-23T03:24:16;17.70;;;9.02;;
72891;SDS011;61032;50.782;6.818;2022-07-23T03:25:18;13.73;;;9.40;;
72891;SDS011;61032;50.782;6.818;2022-07-23T03:26:18;12.45;;;7.90;;
72891;SDS011;61032;50.782;6.818;2022-07-23T03:27:18;15.52;;;9.57;;
72891;SDS011;61032;50.782;6.818;2022-07-23T03:28:19;14.27;;;8.82;;
72891;SDS011;61032;50.782;6.818;2022-07-23T03:29:20;13.15;;;8.48;;
72891;SDS011;61032;50.782;6.818;2022-07-23T03:30:20;16.27;;;8.45;;
72891;SDS011;61032;50.782;6.818;2022-07-23T03:31:20;15.75;;;8.65;;
72891;SDS011;61032;50.782;6.818;2022-07-23T03:32:21;15.55;;;8.98;;
72891;SDS011;61032;50.782;6.818;2022-07-23T03:33:23;15.30;;;8.75;;
72891;SDS011;61032;50.782;6.818;2022-07-23T03:34:23;15.88;;;9.50;;
72891;SDS011;61032;50.782;6.818;2022-07-23T03:35:23;15.65;;;8.98;;
72891;SDS011;61032;50.782;6.818;2022-07-23T03:36:24;15.38;;;8.63;;
72891;SDS011;61032;50.782;6.818;2022-07-23T03:37:24;15.88;;;8.77;;
72891;SDS011;61032;50.782;6.818;2022-07-23T03:38:25;16.05;;;9.52;;
72891;SDS011;61032;50.782;6.818;2022-07-23T03:39:25;14.00;;;9.10;;
72891;SDS011;61032;50.782;6.818;2022-07-23T03:40:25;17.52;;;9.98;;
72891;SDS011;61032;50.782;6.818;2022-07-23T03:41:26;15.38;;;9.00;;
72891;SDS011;61032;50.782;6.818;2022-07-23T03:42:26;15.07;;;9.20;;
72891;SDS011;61032;50.782;6.818;2022-07-23T03:43:27;15.45;;;10.10;;
72891;SDS011;61032;50.782;6.818;2022-07-23T03:44:27;15.32;;;9.48;;
72891;SDS011;61032;50.782;6.818;2022-07-23T03:45:27;13.27;;;8.15;;
72891;SDS011;61032;50.782;6.818;2022-07-23T03:46:28;18.55;;;8.98;;
72891;SDS011;61032;50.782;6.818;2022-07-23T03:47:28;16.80;;;9.07;;
72891;SDS011;61032;50.782;6.818;2022-07-23T03:48:29;16.73;;;9.57;;
72891;SDS011;61032;50.782;6.818;2022-07-23T03:49:29;16.88;;;9.20;;
72891;SDS011;61032;50.782;6.818;2022-07-23T03:50:29;16.42;;;10.23;;
72891;SDS011;61032;50.782;6.818;2022-07-23T03:51:30;17.30;;;9.80;;
72891;SDS011;61032;50.782;6.818;2022-07-23T03:52:30;17.60;;;10.38;;
72891;SDS011;61032;50.782;6.818;2022-07-23T03:53:30;19.30;;;11.00;;
72891;SDS011;61032;50.782;6.818;2022-07-23T03:54:31;17.92;;;11.45;;
72891;SDS011;61032;50.782;6.818;2022-07-23T03:55:31;18.30;;;10.57;;
72891;SDS011;61032;50.782;6.818;2022-07-23T03:56:31;16.23;;;9.65;;
72891;SDS011;61032;50.782;6.818;2022-07-23T03:57:32;17.85;;;10.20;;
72891;SDS011;61032;50.782;6.818;2022-07-23T03:58:32;16.65;;;9.65;;
72891;SDS011;61032;50.782;6.818;2022-07-23T03:59:32;19.70;;;11.38;;
72891;SDS011;61032;50.782;6.818;2022-07-23T04:00:33;18.38;;;10.93;;
72891;SDS011;61032;50.782;6.818;2022-07-23T04:01:33;18.98;;;10.88;;
72891;SDS011;61032;50.782;6.818;2022-07-23T04:02:33;18.33;;;11.40;;
72891;SDS011;61032;50.782;6.818;2022-07-23T04:03:34;19.70;;;11.10;;
72891;SDS011;61032;50.782;6.818;2022-07-23T04:04:34;22.17;;;11.75;;
72891;SDS011;61032;50.782;6.818;2022-07-23T04:05:34;20.20;;;11.35;;
72891;SDS011;61032;50.782;6.818;2022-07-23T04:06:35;22.23;;;11.32;;
72891;SDS011;61032;50.782;6.818;2022-07-23T04:07:36;20.80;;;11.15;;
72891;SDS011;61032;50.782;6.818;2022-07-23T04:08:36;16.65;;;10.20;;
72891;SDS011;61032;50.782;6.818;2022-07-23T04:09:36;21.15;;;11.88;;
72891;SDS011;61032;50.782;6.818;2022-07-23T04:10:37;21.35;;;12.48;;
72891;SDS011;61032;50.782;6.818;2022-07-23T04:11:37;19.35;;;11.75;;
72891;SDS011;61032;50.782;6.818;2022-07-23T04:12:37;19.80;;;12.40;;
72891;SDS011;61032;50.782;6.818;2022-07-23T04:13:38;18.67;;;11.35;;
72891;SDS011;61032;50.782;6.818;2022-07-23T04:14:38;19.35;;;11.70;;
72891;SDS011;61032;50.782;6.818;2022-07-23T04:15:38;20.38;;;12.10;;
72891;SDS011;61032;50.782;6.818;2022-07-23T04:16:39;22.88;;;11.95;;
72891;SDS011;61032;50.782;6.818;2022-07-23T04:17:39;19.70;;;11.52;;
72891;SDS011;61032;50.782;6.818;2022-07-23T04:18:39;20.17;;;11.55;;
72891;SDS011;61032;50.782;6.818;2022-07-23T04:19:40;17.50;;;11.13;;
72891;SDS011;61032;50.782;6.818;2022-07-23T04:20:43;17.88;;;11.75;;
72891;SDS011;61032;50.782;6.818;2022-07-23T04:21:44;16.65;;;10.77;;
72891;SDS011;61032;50.782;6.818;2022-07-23T04:22:44;19.70;;;11.60;;
72891;SDS011;61032;50.782;6.818;2022-07-23T04:23:45;21.85;;;12.10;;
72891;SDS011;61032;50.782;6.818;2022-07-23T04:24:45;21.33;;;11.63;;
72891;SDS011;61032;50.782;6.818;2022-07-23T04:25:46;19.38;;;12.27;;
72891;SDS011;61032;50.782;6.818;2022-07-23T04:26:46;19.38;;;12.00;;
72891;SDS011;61032;50.782;6.818;2022-07-23T04:27:46;19.50;;;11.07;;
72891;SDS011;61032;50.782;6.818;2022-07-23T04:28:46;22.20;;;11.93;;
72891;SDS011;61032;50.782;6.818;2022-07-23T04:29:47;19.88;;;11.75;;
72891;SDS011;61032;50.782;6.818;2022-07-23T04:30:47;22.95;;;11.98;;
72891;SDS011;61032;50.782;6.818;2022-07-23T04:31:47;18.85;;;11.40;;
72891;SDS011;61032;50.782;6.818;2022-07-23T04:32:48;20.10;;;11.50;;
72891;SDS011;61032;50.782;6.818;2022-07-23T04:33:48;19.45;;;10.77;;
72891;SDS011;61032;50.782;6.818;2022-07-23T04:34:48;17.60;;;10.95;;
72891;SDS011;61032;50.782;6.818;2022-07-23T04:35:49;16.98;;;11.18;;
72891;SDS011;61032;50.782;6.818;2022-07-23T04:36:49;19.52;;;11.43;;
72891;SDS011;61032;50.782;6.818;2022-07-23T04:37:49;21.13;;;11.43;;
72891;SDS011;61032;50.782;6.818;2022-07-23T04:38:50;19.17;;;12.05;;
72891;SDS011;61032;50.782;6.818;2022-07-23T04:39:50;21.33;;;11.63;;
72891;SDS011;61032;50.782;6.818;2022-07-23T04:40:50;24.42;;;12.05;;
72891;SDS011;61032;50.782;6.818;2022-07-23T04:41:51;19.95;;;11.57;;
72891;SDS011;61032;50.782;6.818;2022-07-23T04:42:51;18.63;;;12.80;;
72891;SDS011;61032;50.782;6.818;2022-07-23T04:43:51;21.95;;;11.75;;
72891;SDS011;61032;50.782;6.818;2022-07-23T04:44:52;20.80;;;12.82;;
72891;SDS011;61032;50.782;6.818;2022-07-23T04:45:53;20.08;;;12.15;;
72891;SDS011;61032;50.782;6.818;2022-07-23T04:46:53;20.52;;;12.13;;
72891;SDS011;61032;50.782;6.818;2022-07-23T04:47:54;21.90;;;11.70;;
72891;SDS011;61032;50.782;6.818;2022-07-23T04:48:54;20.33;;;11.90;;
72891;SDS011;61032;50.782;6.818;2022-07-23T04:49:55;21.60;;;12.18;;
72891;SDS011;61032;50.782;6.818;2022-07-23T04:50:55;21.10;;;11.80;;
72891;SDS011;61032;50.782;6.818;2022-07-23T04:51:55;19.85;;;11.80;;
72891;SDS011;61032;50.782;6.818;2022-07-23T04:52:55;21.27;;;12.50;;
72891;SDS011;61032;50.782;6.818;2022-07-23T04:53:56;20.15;;;11.82;;
72891;SDS011;61032;50.782;6.818;2022-07-23T04:54:56;20.95;;;12.30;;
72891;SDS011;61032;50.782;6.818;2022-07-23T04:55:56;20.50;;;11.15;;
72891;SDS011;61032;50.782;6.818;2022-07-23T04:56:57;18.15;;;11.60;;
72891;SDS011;61032;50.782;6.818;2022-07-23T04:57:57;23.50;;;13.10;;
72891;SDS011;61032;50.782;6.818;2022-07-23T04:58:57;19.02;;;11.95;;
72891;SDS011;61032;50.782;6.818;2022-07-23T04:59:58;22.10;;;12.70;;
72891;SDS011;61032;50.782;6.818;2022-07-23T05:00:58;20.52;;;11.27;;
72891;SDS011;61032;50.782;6.818;2022-07-23T05:01:58;23.63;;;13.48;;
72891;SDS011;61032;50.782;6.818;2022-07-23T05:02:59;25.60;;;12.85;;
72891;SDS011;61032;50.782;6.818;2022-07-23T05:03:59;19.35;;;11.88;;
72891;SDS011;61032;50.782;6.818;2022-07-23T05:04:59;21.20;;;11.65;;
72891;SDS011;61032;50.782;6.818;2022-07-23T05:06:00;21.77;;;11.98;;
72891;SDS011;61032;50.782;6.818;2022-07-23T05:07:00;24.67;;;12.32;;
72891;SDS011;61032;50.782;6.818;2022-07-23T05:08:01;20.80;;;12.38;;
72891;SDS011;61032;50.782;6.818;2022-07-23T05:09:01;20.75;;;12.00;;
72891;SDS011;61032;50.782;6.818;2022-07-23T05:10:02;21.67;;;11.70;;
72891;SDS011;61032;50.782;6.818;2022-07-23T05:11:03;24.98;;;12.68;;
72891;SDS011;61032;50.782;6.818;2022-07-23T05:12:03;23.27;;;11.57;;
72891;SDS011;61032;50.782;6.818;2022-07-23T05:13:04;19.75;;;11.98;;
72891;SDS011;61032;50.782;6.818;2022-07-23T05:14:04;23.98;;;12.63;;
72891;SDS011;61032;50.782;6.818;2022-07-23T05:15:05;24.63;;;12.00;;
72891;SDS011;61032;50.782;6.818;2022-07-23T05:16:05;22.50;;;12.27;;
72891;SDS011;61032;50.782;6.818;2022-07-23T05:17:06;20.25;;;11.40;;
72891;SDS011;61032;50.782;6.818;2022-07-23T05:19:08;22.77;;;11.25;;
72891;SDS011;61032;50.782;6.818;2022-07-23T05:20:09;18.88;;;11.63;;
72891;SDS011;61032;50.782;6.818;2022-07-23T05:21:09;20.17;;;11.25;;
72891;SDS011;61032;50.782;6.818;2022-07-23T05:22:10;22.05;;;12.20;;
72891;SDS011;61032;50.782;6.818;2022-07-23T05:23:10;20.75;;;11.70;;
72891;SDS011;61032;50.782;6.818;2022-07-23T05:24:11;20.33;;;12.25;;
72891;SDS011;61032;50.782;6.818;2022-07-23T05:25:11;22.42;;;11.60;;
72891;SDS011;61032;50.782;6.818;2022-07-23T05:26:11;21.05;;;11.60;;
72891;SDS011;61032;50.782;6.818;2022-07-23T05:27:12;20.42;;;11.45;;
72891;SDS011;61032;50.782;6.818;2022-07-23T05:28:12;21.95;;;13.18;;
72891;SDS011;61032;50.782;6.818;2022-07-23T05:29:13;21.02;;;11.52;;
72891;SDS011;61032;50.782;6.818;2022-07-23T05:30:13;21.38;;;12.20;;
72891;SDS011;61032;50.782;6.818;2022-07-23T05:31:14;22.38;;;12.27;;
72891;SDS011;61032;50.782;6.818;2022-07-23T05:32:14;20.70;;;11.65;;
72891;SDS011;61032;50.782;6.818;2022-07-23T05:33:14;22.55;;;11.70;;
72891;SDS011;61032;50.782;6.818;2022-07-23T05:34:15;22.35;;;11.98;;
72891;SDS011;61032;50.782;6.818;2022-07-23T05:35:15;22.48;;;12.45;;
72891;SDS011;61032;50.782;6.818;2022-07-23T05:36:16;19.23;;;11.70;;
72891;SDS011;61032;50.782;6.818;2022-07-23T05:37:16;22.88;;;12.10;;
72891;SDS011;61032;50.782;6.818;2022-07-23T05:38:17;20.23;;;12.38;;
72891;SDS011;61032;50.782;6.818;2022-07-23T05:39:17;24.10;;;13.48;;
72891;SDS011;61032;50.782;6.818;2022-07-23T05:40:18;23.00;;;11.70;;
72891;SDS011;61032;50.782;6.818;2022-07-23T05:41:18;20.33;;;12.98;;
72891;SDS011;61032;50.782;6.818;2022-07-23T05:42:19;20.50;;;11.85;;
72891;SDS011;61032;50.782;6.818;2022-07-23T05:43:19;21.90;;;12.02;;
72891;SDS011;61032;50.782;6.818;2022-07-23T05:44:20;22.30;;;12.45;;
72891;SDS011;61032;50.782;6.818;2022-07-23T05:45:20;20.67;;;11.32;;
72891;SDS011;61032;50.782;6.818;2022-07-23T05:46:21;22.95;;;12.18;;
72891;SDS011;61032;50.782;6.818;2022-07-23T05:47:21;20.50;;;12.40;;
72891;SDS011;61032;50.782;6.818;2022-07-23T05:48:22;24.50;;;13.07;;
72891;SDS011;61032;50.782;6.818;2022-07-23T05:49:22;22.75;;;12.15;;
72891;SDS011;61032;50.782;6.818;2022-07-23T05:50:22;22.25;;;12.35;;
72891;SDS011;61032;50.782;6.818;2022-07-23T05:51:23;22.98;;;12.45;;
72891;SDS011;61032;50.782;6.818;2022-07-23T05:52:24;17.58;;;10.98;;
72891;SDS011;61032;50.782;6.818;2022-07-23T05:53:25;23.13;;;12.73;;
72891;SDS011;61032;50.782;6.818;2022-07-23T05:54:25;24.92;;;12.32;;
72891;SDS011;61032;50.782;6.818;2022-07-23T05:55:25;18.50;;;12.40;;
72891;SDS011;61032;50.782;6.818;2022-07-23T05:56:29;22.85;;;11.70;;
72891;SDS011;61032;50.782;6.818;2022-07-23T05:57:29;22.30;;;12.63;;
72891;SDS011;61032;50.782;6.818;2022-07-23T05:58:29;21.52;;;12.80;;
72891;SDS011;61032;50.782;6.818;2022-07-23T05:59:30;19.63;;;11.43;;